sensor_id;sensor_type;location;lat;lon;timestamp;P1;durP1;ratioP1;P2;durP2;ratioP2
58260;SDS011;44058;52.898;6.502;2023-09-30T00:00:08;10.70;;;3.65;;
58260;SDS011;44058;52.898;6.502;2023-09-30T00:02:34;13.43;;;3.13;;
58260;SDS011;44058;52.898;6.502;2023-09-30T00:05:00;12.40;;;3.28;;
58260;SDS011;44058;52.898;6.502;2023-09-30T00:07:27;8.55;;;3.25;;
58260;SDS011;44058;52.898;6.502;2023-09-30T00:09:53;12.73;;;3.55;;
58260;SDS011;44058;52.898;6.502;2023-09-30T00:12:39;13.23;;;3.78;;
58260;SDS011;44058;52.898;6.502;2023-09-30T00:15:05;12.85;;;3.53;;
58260;SDS011;44058;52.898;6.502;2023-09-30T00:17:31;12.10;;;3.45;;
58260;SDS011;44058;52.898;6.502;2023-09-30T00:19:57;11.35;;;3.05;;
58260;SDS011;44058;52.898;6.502;2023-09-30T00:22:24;8.73;;;3.55;;
58260;SDS011;44058;52.898;6.502;2023-09-30T00:24:51;7.97;;;3.38;;
58260;SDS011;44058;52.898;6.502;2023-09-30T00:27:17;11.70;;;3.30;;
58260;SDS011;44058;52.898;6.502;2023-09-30T00:29:43;12.75;;;3.80;;
58260;SDS011;44058;52.898;6.502;2023-09-30T00:32:09;11.40;;;4.10;;
58260;SDS011;44058;52.898;6.502;2023-09-30T00:34:35;14.88;;;3.53;;
58260;SDS011;44058;52.898;6.502;2023-09-30T00:37:02;10.23;;;3.10;;
58260;SDS011;44058;52.898;6.502;2023-09-30T00:39:28;14.30;;;3.80;;
58260;SDS011;44058;52.898;6.502;2023-09-30T00:41:57;11.23;;;3.22;;
58260;SDS011;44058;52.898;6.502;2023-09-30T00:44:26;9.88;;;3.80;;
58260;SDS011;44058;52.898;6.502;2023-09-30T00:46:53;10.32;;;3.97;;
58260;SDS011;44058;52.898;6.502;2023-09-30T00:49:20;8.88;;;3.70;;
58260;SDS011;44058;52.898;6.502;2023-09-30T00:51:47;12.68;;;3.30;;
58260;SDS011;44058;52.898;6.502;2023-09-30T00:54:14;12.05;;;4.18;;
58260;SDS011;44058;52.898;6.502;2023-09-30T00:56:45;15.65;;;4.00;;
58260;SDS011;44058;52.898;6.502;2023-09-30T00:59:14;10.40;;;3.20;;
58260;SDS011;44058;52.898;6.502;2023-09-30T01:01:41;11.85;;;3.50;;
58260;SDS011;44058;52.898;6.502;2023-09-30T01:04:09;10.35;;;4.00;;
58260;SDS011;44058;52.898;6.502;2023-09-30T01:06:35;13.05;;;3.60;;
58260;SDS011;44058;52.898;6.502;2023-09-30T01:09:02;11.00;;;4.07;;
58260;SDS011;44058;52.898;6.502;2023-09-30T01:11:28;8.27;;;3.05;;
58260;SDS011;44058;52.898;6.502;2023-09-30T01:13:54;12.52;;;3.83;;
58260;SDS011;44058;52.898;6.502;2023-09-30T01:16:20;10.45;;;3.47;;
58260;SDS011;44058;52.898;6.502;2023-09-30T01:18:47;11.32;;;4.00;;
58260;SDS011;44058;52.898;6.502;2023-09-30T01:21:13;11.77;;;3.90;;
58260;SDS011;44058;52.898;6.502;2023-09-30T01:23:39;11.50;;;3.70;;
58260;SDS011;44058;52.898;6.502;2023-09-30T01:26:10;11.50;;;4.05;;
58260;SDS011;44058;52.898;6.502;2023-09-30T01:28:37;9.90;;;3.53;;
58260;SDS011;44058;52.898;6.502;2023-09-30T01:31:03;12.88;;;3.75;;
58260;SDS011;44058;52.898;6.502;2023-09-30T01:33:30;13.05;;;3.80;;
58260;SDS011;44058;52.898;6.502;2023-09-30T01:35:57;8.55;;;3.63;;
58260;SDS011;44058;52.898;6.502;2023-09-30T01:38:23;10.77;;;4.15;;
58260;SDS011;44058;52.898;6.502;2023-09-30T01:40:49;11.95;;;4.20;;
58260;SDS011;44058;52.898;6.502;2023-09-30T01:43:15;10.70;;;3.97;;
58260;SDS011;44058;52.898;6.502;2023-09-30T01:45:42;10.25;;;3.85;;
58260;SDS011;44058;52.898;6.502;2023-09-30T01:48:08;9.77;;;3.88;;
58260;SDS011;44058;52.898;6.502;2023-09-30T01:50:39;11.77;;;4.38;;
58260;SDS011;44058;52.898;6.502;2023-09-30T01:53:25;12.48;;;4.40;;
58260;SDS011;44058;52.898;6.502;2023-09-30T01:55:51;9.07;;;3.53;;
58260;SDS011;44058;52.898;6.502;2023-09-30T01:58:17;12.45;;;4.13;;
58260;SDS011;44058;52.898;6.502;2023-09-30T02:00:43;9.15;;;3.92;;
58260;SDS011;44058;52.898;6.502;2023-09-30T02:03:10;11.80;;;3.92;;
58260;SDS011;44058;52.898;6.502;2023-09-30T02:05:38;15.07;;;4.70;;
58260;SDS011;44058;52.898;6.502;2023-09-30T02:08:04;12.60;;;4.50;;
58260;SDS011;44058;52.898;6.502;2023-09-30T02:10:31;12.02;;;3.90;;
58260;SDS011;44058;52.898;6.502;2023-09-30T02:13:00;13.68;;;3.78;;
58260;SDS011;44058;52.898;6.502;2023-09-30T02:15:26;14.82;;;4.45;;
58260;SDS011;44058;52.898;6.502;2023-09-30T02:17:53;9.45;;;4.22;;
58260;SDS011;44058;52.898;6.502;2023-09-30T02:20:19;11.88;;;3.95;;
58260;SDS011;44058;52.898;6.502;2023-09-30T02:22:47;13.57;;;3.93;;
58260;SDS011;44058;52.898;6.502;2023-09-30T02:25:14;12.00;;;4.65;;
58260;SDS011;44058;52.898;6.502;2023-09-30T02:27:41;9.93;;;3.97;;
58260;SDS011;44058;52.898;6.502;2023-09-30T02:30:08;13.80;;;5.05;;
58260;SDS011;44058;52.898;6.502;2023-09-30T02:32:35;12.90;;;4.25;;
58260;SDS011;44058;52.898;6.502;2023-09-30T02:35:02;11.73;;;4.40;;
58260;SDS011;44058;52.898;6.502;2023-09-30T02:37:31;14.93;;;4.80;;
58260;SDS011;44058;52.898;6.502;2023-09-30T02:40:01;15.00;;;5.03;;
58260;SDS011;44058;52.898;6.502;2023-09-30T02:42:28;13.07;;;4.13;;
58260;SDS011;44058;52.898;6.502;2023-09-30T02:45:15;10.80;;;4.25;;
58260;SDS011;44058;52.898;6.502;2023-09-30T02:47:42;11.52;;;4.60;;
58260;SDS011;44058;52.898;6.502;2023-09-30T02:50:09;17.15;;;4.78;;
58260;SDS011;44058;52.898;6.502;2023-09-30T02:52:39;13.77;;;4.35;;
58260;SDS011;44058;52.898;6.502;2023-09-30T02:55:11;12.48;;;4.18;;
58260;SDS011;44058;52.898;6.502;2023-09-30T02:57:38;10.32;;;4.07;;
58260;SDS011;44058;52.898;6.502;2023-09-30T03:00:04;12.65;;;4.40;;
58260;SDS011;44058;52.898;6.502;2023-09-30T03:02:49;11.18;;;4.03;;
58260;SDS011;44058;52.898;6.502;2023-09-30T03:05:16;13.55;;;4.60;;
58260;SDS011;44058;52.898;6.502;2023-09-30T03:07:42;15.80;;;4.88;;
58260;SDS011;44058;52.898;6.502;2023-09-30T03:10:08;11.20;;;4.18;;
58260;SDS011;44058;52.898;6.502;2023-09-30T03:12:55;11.13;;;4.65;;
58260;SDS011;44058;52.898;6.502;2023-09-30T03:15:26;14.18;;;4.93;;
58260;SDS011;44058;52.898;6.502;2023-09-30T03:17:53;23.42;;;5.28;;
58260;SDS011;44058;52.898;6.502;2023-09-30T03:20:21;9.63;;;4.60;;
58260;SDS011;44058;52.898;6.502;2023-09-30T03:22:49;12.45;;;4.43;;
58260;SDS011;44058;52.898;6.502;2023-09-30T03:25:15;11.55;;;4.88;;
58260;SDS011;44058;52.898;6.502;2023-09-30T03:27:44;13.82;;;4.70;;
58260;SDS011;44058;52.898;6.502;2023-09-30T03:30:12;11.07;;;3.90;;
58260;SDS011;44058;52.898;6.502;2023-09-30T03:32:38;14.10;;;4.57;;
58260;SDS011;44058;52.898;6.502;2023-09-30T03:35:05;12.40;;;4.68;;
58260;SDS011;44058;52.898;6.502;2023-09-30T03:37:31;10.73;;;4.50;;
58260;SDS011;44058;52.898;6.502;2023-09-30T03:39:57;13.23;;;4.53;;
58260;SDS011;44058;52.898;6.502;2023-09-30T03:42:23;7.63;;;4.53;;
58260;SDS011;44058;52.898;6.502;2023-09-30T03:44:49;12.27;;;4.25;;
58260;SDS011;44058;52.898;6.502;2023-09-30T03:47:16;12.60;;;3.85;;
58260;SDS011;44058;52.898;6.502;2023-09-30T03:49:43;12.95;;;4.90;;
58260;SDS011;44058;52.898;6.502;2023-09-30T03:52:11;12.20;;;4.22;;
58260;SDS011;44058;52.898;6.502;2023-09-30T03:54:38;10.98;;;4.60;;
58260;SDS011;44058;52.898;6.502;2023-09-30T03:57:06;10.43;;;4.20;;
58260;SDS011;44058;52.898;6.502;2023-09-30T03:59:32;9.85;;;4.63;;
58260;SDS011;44058;52.898;6.502;2023-09-30T04:01:59;11.27;;;4.32;;
58260;SDS011;44058;52.898;6.502;2023-09-30T04:04:26;9.82;;;4.30;;
58260;SDS011;44058;52.898;6.502;2023-09-30T04:06:52;10.70;;;4.10;;
58260;SDS011;44058;52.898;6.502;2023-09-30T04:09:18;12.15;;;4.70;;
58260;SDS011;44058;52.898;6.502;2023-09-30T04:11:44;11.07;;;5.55;;
58260;SDS011;44058;52.898;6.502;2023-09-30T04:14:11;13.85;;;4.88;;
58260;SDS011;44058;52.898;6.502;2023-09-30T04:16:37;9.80;;;4.28;;
58260;SDS011;44058;52.898;6.502;2023-09-30T04:19:04;10.65;;;4.38;;
58260;SDS011;44058;52.898;6.502;2023-09-30T04:21:32;11.07;;;4.68;;
58260;SDS011;44058;52.898;6.502;2023-09-30T04:23:59;11.98;;;4.13;;
58260;SDS011;44058;52.898;6.502;2023-09-30T04:26:25;11.95;;;4.55;;
58260;SDS011;44058;52.898;6.502;2023-09-30T04:28:52;9.13;;;4.68;;
58260;SDS011;44058;52.898;6.502;2023-09-30T04:31:19;11.00;;;4.38;;
58260;SDS011;44058;52.898;6.502;2023-09-30T04:33:47;12.38;;;5.13;;
58260;SDS011;44058;52.898;6.502;2023-09-30T04:36:13;9.73;;;5.13;;
58260;SDS011;44058;52.898;6.502;2023-09-30T04:38:39;13.18;;;4.88;;
58260;SDS011;44058;52.898;6.502;2023-09-30T04:41:05;13.60;;;5.97;;
58260;SDS011;44058;52.898;6.502;2023-09-30T04:43:34;12.70;;;4.80;;
58260;SDS011;44058;52.898;6.502;2023-09-30T04:46:04;12.93;;;5.13;;
58260;SDS011;44058;52.898;6.502;2023-09-30T04:48:30;8.93;;;4.95;;
58260;SDS011;44058;52.898;6.502;2023-09-30T04:50:57;11.45;;;4.95;;
58260;SDS011;44058;52.898;6.502;2023-09-30T04:53:23;12.30;;;4.88;;
58260;SDS011;44058;52.898;6.502;2023-09-30T04:55:49;14.27;;;5.75;;
58260;SDS011;44058;52.898;6.502;2023-09-30T04:58:15;15.15;;;5.70;;
58260;SDS011;44058;52.898;6.502;2023-09-30T05:00:41;11.93;;;5.25;;
58260;SDS011;44058;52.898;6.502;2023-09-30T05:03:08;10.70;;;5.05;;
58260;SDS011;44058;52.898;6.502;2023-09-30T05:05:34;13.45;;;5.55;;
58260;SDS011;44058;52.898;6.502;2023-09-30T05:08:00;13.18;;;6.18;;
58260;SDS011;44058;52.898;6.502;2023-09-30T05:10:27;12.25;;;6.47;;
58260;SDS011;44058;52.898;6.502;2023-09-30T05:12:54;15.85;;;6.47;;
58260;SDS011;44058;52.898;6.502;2023-09-30T05:15:21;13.95;;;6.60;;
58260;SDS011;44058;52.898;6.502;2023-09-30T05:17:48;11.35;;;6.38;;
58260;SDS011;44058;52.898;6.502;2023-09-30T05:20:14;12.05;;;6.40;;
58260;SDS011;44058;52.898;6.502;2023-09-30T05:22:45;12.90;;;6.93;;
58260;SDS011;44058;52.898;6.502;2023-09-30T05:25:18;14.77;;;7.18;;
58260;SDS011;44058;52.898;6.502;2023-09-30T05:27:45;13.50;;;7.30;;
58260;SDS011;44058;52.898;6.502;2023-09-30T05:30:13;15.23;;;7.55;;
58260;SDS011;44058;52.898;6.502;2023-09-30T05:32:41;11.75;;;6.53;;
58260;SDS011;44058;52.898;6.502;2023-09-30T05:35:07;12.88;;;6.82;;
58260;SDS011;44058;52.898;6.502;2023-09-30T05:37:42;15.93;;;8.07;;
58260;SDS011;44058;52.898;6.502;2023-09-30T05:40:10;13.30;;;7.27;;
58260;SDS011;44058;52.898;6.502;2023-09-30T05:42:52;12.07;;;7.55;;
58260;SDS011;44058;52.898;6.502;2023-09-30T05:45:19;11.25;;;7.45;;
58260;SDS011;44058;52.898;6.502;2023-09-30T05:47:45;13.60;;;8.02;;
58260;SDS011;44058;52.898;6.502;2023-09-30T05:50:11;15.13;;;7.20;;
58260;SDS011;44058;52.898;6.502;2023-09-30T05:52:42;11.88;;;7.85;;
58260;SDS011;44058;52.898;6.502;2023-09-30T05:55:10;13.30;;;7.75;;
58260;SDS011;44058;52.898;6.502;2023-09-30T05:57:36;14.52;;;8.00;;
58260;SDS011;44058;52.898;6.502;2023-09-30T06:00:02;14.75;;;7.82;;
58260;SDS011;44058;52.898;6.502;2023-09-30T06:02:49;13.57;;;7.40;;
58260;SDS011;44058;52.898;6.502;2023-09-30T06:05:17;14.23;;;7.43;;
58260;SDS011;44058;52.898;6.502;2023-09-30T06:07:47;13.40;;;7.20;;
58260;SDS011;44058;52.898;6.502;2023-09-30T06:12:51;12.35;;;7.82;;
58260;SDS011;44058;52.898;6.502;2023-09-30T06:15:21;12.35;;;7.90;;
58260;SDS011;44058;52.898;6.502;2023-09-30T06:17:51;15.75;;;8.45;;
58260;SDS011;44058;52.898;6.502;2023-09-30T06:20:17;16.85;;;7.63;;
58260;SDS011;44058;52.898;6.502;2023-09-30T06:22:44;15.63;;;7.97;;
58260;SDS011;44058;52.898;6.502;2023-09-30T06:25:16;13.77;;;8.40;;
58260;SDS011;44058;52.898;6.502;2023-09-30T06:27:43;15.10;;;7.70;;
58260;SDS011;44058;52.898;6.502;2023-09-30T06:30:10;12.52;;;7.68;;
58260;SDS011;44058;52.898;6.502;2023-09-30T06:32:37;14.73;;;7.97;;
58260;SDS011;44058;52.898;6.502;2023-09-30T06:35:03;16.60;;;7.88;;
58260;SDS011;44058;52.898;6.502;2023-09-30T06:37:31;14.60;;;7.82;;
58260;SDS011;44058;52.898;6.502;2023-09-30T06:39:57;14.73;;;7.85;;
58260;SDS011;44058;52.898;6.502;2023-09-30T06:42:24;13.35;;;7.70;;
58260;SDS011;44058;52.898;6.502;2023-09-30T06:44:50;18.33;;;7.57;;
58260;SDS011;44058;52.898;6.502;2023-09-30T06:47:17;17.17;;;8.05;;
58260;SDS011;44058;52.898;6.502;2023-09-30T06:49:44;13.30;;;7.65;;
58260;SDS011;44058;52.898;6.502;2023-09-30T06:52:11;14.40;;;7.55;;
58260;SDS011;44058;52.898;6.502;2023-09-30T06:54:38;13.63;;;7.95;;
58260;SDS011;44058;52.898;6.502;2023-09-30T06:57:24;16.50;;;8.05;;
58260;SDS011;44058;52.898;6.502;2023-09-30T06:59:50;20.48;;;7.93;;
58260;SDS011;44058;52.898;6.502;2023-09-30T07:02:16;13.60;;;8.13;;
58260;SDS011;44058;52.898;6.502;2023-09-30T07:04:42;11.48;;;7.18;;
58260;SDS011;44058;52.898;6.502;2023-09-30T07:07:28;14.55;;;8.13;;
58260;SDS011;44058;52.898;6.502;2023-09-30T07:09:55;13.80;;;7.35;;
58260;SDS011;44058;52.898;6.502;2023-09-30T07:12:21;14.15;;;7.63;;
58260;SDS011;44058;52.898;6.502;2023-09-30T07:14:47;14.85;;;8.15;;
58260;SDS011;44058;52.898;6.502;2023-09-30T07:17:13;15.60;;;8.10;;
58260;SDS011;44058;52.898;6.502;2023-09-30T07:19:59;14.93;;;7.85;;
58260;SDS011;44058;52.898;6.502;2023-09-30T07:22:25;13.20;;;7.55;;
58260;SDS011;44058;52.898;6.502;2023-09-30T07:24:51;14.65;;;8.40;;
58260;SDS011;44058;52.898;6.502;2023-09-30T07:27:18;14.38;;;8.23;;
58260;SDS011;44058;52.898;6.502;2023-09-30T07:29:44;13.48;;;7.65;;
58260;SDS011;44058;52.898;6.502;2023-09-30T07:32:10;17.58;;;8.98;;
58260;SDS011;44058;52.898;6.502;2023-09-30T07:34:37;15.50;;;8.50;;
58260;SDS011;44058;52.898;6.502;2023-09-30T07:37:03;16.10;;;8.45;;
58260;SDS011;44058;52.898;6.502;2023-09-30T07:39:29;14.65;;;8.32;;
58260;SDS011;44058;52.898;6.502;2023-09-30T07:41:56;12.23;;;8.07;;
58260;SDS011;44058;52.898;6.502;2023-09-30T07:44:22;16.02;;;7.63;;
58260;SDS011;44058;52.898;6.502;2023-09-30T07:46:48;14.55;;;8.07;;
58260;SDS011;44058;52.898;6.502;2023-09-30T07:49:14;15.02;;;8.20;;
58260;SDS011;44058;52.898;6.502;2023-09-30T07:51:40;14.15;;;8.65;;
58260;SDS011;44058;52.898;6.502;2023-09-30T07:54:06;16.88;;;8.50;;
58260;SDS011;44058;52.898;6.502;2023-09-30T07:56:33;13.98;;;8.15;;
58260;SDS011;44058;52.898;6.502;2023-09-30T07:58:59;15.07;;;7.50;;
58260;SDS011;44058;52.898;6.502;2023-09-30T08:01:25;11.90;;;7.57;;
58260;SDS011;44058;52.898;6.502;2023-09-30T08:03:51;15.23;;;7.60;;
58260;SDS011;44058;52.898;6.502;2023-09-30T08:06:17;14.43;;;8.35;;
58260;SDS011;44058;52.898;6.502;2023-09-30T08:08:43;13.35;;;7.47;;
58260;SDS011;44058;52.898;6.502;2023-09-30T08:11:09;14.88;;;8.65;;
58260;SDS011;44058;52.898;6.502;2023-09-30T08:13:35;12.13;;;7.55;;
58260;SDS011;44058;52.898;6.502;2023-09-30T08:16:02;16.25;;;7.60;;
58260;SDS011;44058;52.898;6.502;2023-09-30T08:18:28;12.25;;;7.72;;
58260;SDS011;44058;52.898;6.502;2023-09-30T08:20:54;15.55;;;8.02;;
58260;SDS011;44058;52.898;6.502;2023-09-30T08:23:20;14.65;;;8.50;;
58260;SDS011;44058;52.898;6.502;2023-09-30T08:26:06;17.13;;;8.30;;
58260;SDS011;44058;52.898;6.502;2023-09-30T08:28:32;12.38;;;7.55;;
58260;SDS011;44058;52.898;6.502;2023-09-30T08:31:02;13.95;;;8.05;;
58260;SDS011;44058;52.898;6.502;2023-09-30T08:33:28;15.80;;;7.50;;
58260;SDS011;44058;52.898;6.502;2023-09-30T08:36:16;16.63;;;7.75;;
58260;SDS011;44058;52.898;6.502;2023-09-30T08:38:43;14.43;;;7.95;;
58260;SDS011;44058;52.898;6.502;2023-09-30T08:41:09;13.98;;;7.80;;
58260;SDS011;44058;52.898;6.502;2023-09-30T08:43:39;12.57;;;8.07;;
58260;SDS011;44058;52.898;6.502;2023-09-30T08:46:06;15.10;;;7.10;;
58260;SDS011;44058;52.898;6.502;2023-09-30T08:48:33;12.45;;;8.00;;
58260;SDS011;44058;52.898;6.502;2023-09-30T08:50:59;11.38;;;7.60;;
58260;SDS011;44058;52.898;6.502;2023-09-30T08:53:26;13.65;;;7.18;;
58260;SDS011;44058;52.898;6.502;2023-09-30T08:55:52;11.55;;;6.75;;
58260;SDS011;44058;52.898;6.502;2023-09-30T08:58:23;12.82;;;7.20;;
58260;SDS011;44058;52.898;6.502;2023-09-30T09:00:52;14.18;;;7.15;;
58260;SDS011;44058;52.898;6.502;2023-09-30T09:03:18;14.90;;;7.63;;
58260;SDS011;44058;52.898;6.502;2023-09-30T09:05:45;14.25;;;7.50;;
58260;SDS011;44058;52.898;6.502;2023-09-30T09:08:31;14.02;;;8.10;;
58260;SDS011;44058;52.898;6.502;2023-09-30T09:11:00;14.30;;;7.43;;
58260;SDS011;44058;52.898;6.502;2023-09-30T09:13:45;13.18;;;7.28;;
58260;SDS011;44058;52.898;6.502;2023-09-30T09:16:14;11.70;;;6.68;;
58260;SDS011;44058;52.898;6.502;2023-09-30T09:18:41;11.05;;;6.75;;
58260;SDS011;44058;52.898;6.502;2023-09-30T09:23:43;10.82;;;7.05;;
58260;SDS011;44058;52.898;6.502;2023-09-30T09:26:10;15.82;;;7.43;;
58260;SDS011;44058;52.898;6.502;2023-09-30T09:28:36;10.85;;;6.80;;
58260;SDS011;44058;52.898;6.502;2023-09-30T09:31:26;12.95;;;6.88;;
58260;SDS011;44058;52.898;6.502;2023-09-30T09:33:51;10.65;;;5.80;;
58260;SDS011;44058;52.898;6.502;2023-09-30T09:36:18;13.73;;;6.82;;
58260;SDS011;44058;52.898;6.502;2023-09-30T09:38:50;11.88;;;6.60;;
58260;SDS011;44058;52.898;6.502;2023-09-30T09:41:20;13.07;;;5.35;;
58260;SDS011;44058;52.898;6.502;2023-09-30T09:43:49;11.95;;;6.15;;
58260;SDS011;44058;52.898;6.502;2023-09-30T09:46:16;12.85;;;6.10;;
58260;SDS011;44058;52.898;6.502;2023-09-30T09:48:44;12.48;;;5.68;;
58260;SDS011;44058;52.898;6.502;2023-09-30T09:51:11;13.93;;;6.25;;
58260;SDS011;44058;52.898;6.502;2023-09-30T09:53:38;12.25;;;5.75;;
58260;SDS011;44058;52.898;6.502;2023-09-30T09:56:04;13.02;;;5.05;;
58260;SDS011;44058;52.898;6.502;2023-09-30T09:58:35;11.10;;;4.97;;
58260;SDS011;44058;52.898;6.502;2023-09-30T10:01:04;9.32;;;5.10;;
58260;SDS011;44058;52.898;6.502;2023-09-30T10:03:31;8.53;;;3.83;;
58260;SDS011;44058;52.898;6.502;2023-09-30T10:05:58;8.23;;;4.28;;
58260;SDS011;44058;52.898;6.502;2023-09-30T10:08:32;10.07;;;4.97;;
58260;SDS011;44058;52.898;6.502;2023-09-30T10:10:59;9.65;;;4.32;;
58260;SDS011;44058;52.898;6.502;2023-09-30T10:14:11;10.07;;;4.78;;
58260;SDS011;44058;52.898;6.502;2023-09-30T10:16:46;10.50;;;5.35;;
58260;SDS011;44058;52.898;6.502;2023-09-30T10:21:34;10.05;;;5.45;;
58260;SDS011;44058;52.898;6.502;2023-09-30T10:26:45;10.13;;;5.55;;
58260;SDS011;44058;52.898;6.502;2023-09-30T10:29:11;12.75;;;5.20;;
58260;SDS011;44058;52.898;6.502;2023-09-30T10:31:49;8.65;;;4.22;;
58260;SDS011;44058;52.898;6.502;2023-09-30T10:34:19;9.50;;;4.43;;
58260;SDS011;44058;52.898;6.502;2023-09-30T10:36:46;10.10;;;4.45;;
58260;SDS011;44058;52.898;6.502;2023-09-30T10:39:16;13.10;;;4.70;;
58260;SDS011;44058;52.898;6.502;2023-09-30T10:42:01;13.20;;;4.63;;
58260;SDS011;44058;52.898;6.502;2023-09-30T10:51:50;10.80;;;4.38;;
58260;SDS011;44058;52.898;6.502;2023-09-30T10:54:22;8.18;;;4.32;;
58260;SDS011;44058;52.898;6.502;2023-09-30T10:56:48;9.10;;;3.83;;
58260;SDS011;44058;52.898;6.502;2023-09-30T10:59:24;11.05;;;3.45;;
58260;SDS011;44058;52.898;6.502;2023-09-30T11:01:50;6.35;;;2.67;;
58260;SDS011;44058;52.898;6.502;2023-09-30T11:04:18;6.75;;;2.33;;
58260;SDS011;44058;52.898;6.502;2023-09-30T11:06:45;7.85;;;2.40;;
58260;SDS011;44058;52.898;6.502;2023-09-30T11:09:15;6.03;;;2.17;;
58260;SDS011;44058;52.898;6.502;2023-09-30T11:14:30;12.38;;;2.83;;
58260;SDS011;44058;52.898;6.502;2023-09-30T11:16:57;6.90;;;2.35;;
58260;SDS011;44058;52.898;6.502;2023-09-30T11:19:24;8.95;;;2.83;;
58260;SDS011;44058;52.898;6.502;2023-09-30T11:21:52;9.02;;;2.53;;
58260;SDS011;44058;52.898;6.502;2023-09-30T11:24:23;5.75;;;1.83;;
58260;SDS011;44058;52.898;6.502;2023-09-30T11:26:53;2.55;;;1.70;;
58260;SDS011;44058;52.898;6.502;2023-09-30T11:29:20;5.82;;;1.60;;
58260;SDS011;44058;52.898;6.502;2023-09-30T11:31:48;3.15;;;1.40;;
58260;SDS011;44058;52.898;6.502;2023-09-30T11:34:16;4.97;;;1.70;;
58260;SDS011;44058;52.898;6.502;2023-09-30T11:39:25;6.88;;;1.70;;
58260;SDS011;44058;52.898;6.502;2023-09-30T11:41:52;4.63;;;1.65;;
58260;SDS011;44058;52.898;6.502;2023-09-30T11:44:20;3.17;;;1.60;;
58260;SDS011;44058;52.898;6.502;2023-09-30T11:46:59;7.20;;;2.10;;
58260;SDS011;44058;52.898;6.502;2023-09-30T11:51:54;7.57;;;2.40;;
58260;SDS011;44058;52.898;6.502;2023-09-30T11:54:20;5.05;;;1.60;;
58260;SDS011;44058;52.898;6.502;2023-09-30T11:56:49;6.20;;;1.90;;
58260;SDS011;44058;52.898;6.502;2023-09-30T11:59:16;4.07;;;1.73;;
58260;SDS011;44058;52.898;6.502;2023-09-30T12:01:44;4.57;;;1.60;;
58260;SDS011;44058;52.898;6.502;2023-09-30T12:04:12;4.47;;;1.38;;
58260;SDS011;44058;52.898;6.502;2023-09-30T12:06:38;6.05;;;2.15;;
58260;SDS011;44058;52.898;6.502;2023-09-30T12:09:04;5.15;;;1.60;;
58260;SDS011;44058;52.898;6.502;2023-09-30T12:11:32;4.13;;;1.55;;
58260;SDS011;44058;52.898;6.502;2023-09-30T12:13:58;4.43;;;1.77;;
58260;SDS011;44058;52.898;6.502;2023-09-30T12:16:25;5.97;;;1.73;;
58260;SDS011;44058;52.898;6.502;2023-09-30T12:18:52;4.68;;;1.77;;
58260;SDS011;44058;52.898;6.502;2023-09-30T12:21:18;4.50;;;1.60;;
58260;SDS011;44058;52.898;6.502;2023-09-30T12:23:45;4.70;;;1.60;;
58260;SDS011;44058;52.898;6.502;2023-09-30T12:28:39;7.10;;;1.85;;
58260;SDS011;44058;52.898;6.502;2023-09-30T12:31:06;5.05;;;1.75;;
58260;SDS011;44058;52.898;6.502;2023-09-30T12:33:32;3.90;;;1.67;;
58260;SDS011;44058;52.898;6.502;2023-09-30T12:35:58;5.53;;;1.80;;
58260;SDS011;44058;52.898;6.502;2023-09-30T12:38:24;4.18;;;1.55;;
58260;SDS011;44058;52.898;6.502;2023-09-30T12:40:53;5.35;;;1.98;;
58260;SDS011;44058;52.898;6.502;2023-09-30T12:43:19;5.22;;;2.03;;
58260;SDS011;44058;52.898;6.502;2023-09-30T12:45:45;4.70;;;1.73;;
58260;SDS011;44058;52.898;6.502;2023-09-30T12:48:12;6.07;;;1.65;;
58260;SDS011;44058;52.898;6.502;2023-09-30T12:50:39;3.42;;;1.23;;
58260;SDS011;44058;52.898;6.502;2023-09-30T12:53:05;4.88;;;1.92;;
58260;SDS011;44058;52.898;6.502;2023-09-30T12:55:32;3.42;;;1.38;;
58260;SDS011;44058;52.898;6.502;2023-09-30T12:57:58;5.40;;;1.98;;
58260;SDS011;44058;52.898;6.502;2023-09-30T13:00:27;4.10;;;1.90;;
58260;SDS011;44058;52.898;6.502;2023-09-30T13:02:56;4.75;;;1.63;;
58260;SDS011;44058;52.898;6.502;2023-09-30T13:05:23;5.28;;;1.80;;
58260;SDS011;44058;52.898;6.502;2023-09-30T13:07:50;4.95;;;1.70;;
58260;SDS011;44058;52.898;6.502;2023-09-30T13:10:18;5.40;;;1.65;;
58260;SDS011;44058;52.898;6.502;2023-09-30T13:12:45;3.58;;;1.40;;
58260;SDS011;44058;52.898;6.502;2023-09-30T13:15:32;3.47;;;1.58;;
58260;SDS011;44058;52.898;6.502;2023-09-30T13:17:58;5.80;;;1.48;;
58260;SDS011;44058;52.898;6.502;2023-09-30T13:20:24;3.97;;;2.33;;
58260;SDS011;44058;52.898;6.502;2023-09-30T13:22:50;5.30;;;1.85;;
58260;SDS011;44058;52.898;6.502;2023-09-30T13:25:16;3.72;;;1.13;;
58260;SDS011;44058;52.898;6.502;2023-09-30T13:27:42;4.18;;;2.03;;
58260;SDS011;44058;52.898;6.502;2023-09-30T13:30:09;3.22;;;1.80;;
58260;SDS011;44058;52.898;6.502;2023-09-30T13:32:35;3.17;;;1.45;;
58260;SDS011;44058;52.898;6.502;2023-09-30T13:35:05;3.97;;;1.58;;
58260;SDS011;44058;52.898;6.502;2023-09-30T13:37:31;3.47;;;1.40;;
58260;SDS011;44058;52.898;6.502;2023-09-30T13:40:01;5.20;;;1.63;;
58260;SDS011;44058;52.898;6.502;2023-09-30T13:42:30;6.45;;;1.75;;
58260;SDS011;44058;52.898;6.502;2023-09-30T13:44:56;3.90;;;1.77;;
58260;SDS011;44058;52.898;6.502;2023-09-30T13:47:23;6.05;;;1.55;;
58260;SDS011;44058;52.898;6.502;2023-09-30T13:49:49;4.68;;;1.70;;
58260;SDS011;44058;52.898;6.502;2023-09-30T13:52:15;4.38;;;1.48;;
58260;SDS011;44058;52.898;6.502;2023-09-30T13:54:42;4.10;;;1.58;;
58260;SDS011;44058;52.898;6.502;2023-09-30T13:57:08;8.75;;;2.08;;
58260;SDS011;44058;52.898;6.502;2023-09-30T13:59:35;4.60;;;1.70;;
58260;SDS011;44058;52.898;6.502;2023-09-30T14:02:02;5.47;;;1.73;;
58260;SDS011;44058;52.898;6.502;2023-09-30T14:04:31;4.78;;;1.70;;
58260;SDS011;44058;52.898;6.502;2023-09-30T14:07:00;5.72;;;1.90;;
58260;SDS011;44058;52.898;6.502;2023-09-30T14:09:27;4.82;;;1.45;;
58260;SDS011;44058;52.898;6.502;2023-09-30T14:11:53;7.13;;;1.60;;
58260;SDS011;44058;52.898;6.502;2023-09-30T14:14:19;5.85;;;1.63;;
58260;SDS011;44058;52.898;6.502;2023-09-30T14:16:45;4.97;;;1.55;;
58260;SDS011;44058;52.898;6.502;2023-09-30T14:19:12;6.18;;;2.25;;
58260;SDS011;44058;52.898;6.502;2023-09-30T14:21:39;4.43;;;1.35;;
58260;SDS011;44058;52.898;6.502;2023-09-30T14:24:05;6.50;;;1.73;;
58260;SDS011;44058;52.898;6.502;2023-09-30T14:26:31;4.05;;;1.73;;
58260;SDS011;44058;52.898;6.502;2023-09-30T14:28:58;5.57;;;1.52;;
58260;SDS011;44058;52.898;6.502;2023-09-30T14:31:24;5.35;;;1.83;;
58260;SDS011;44058;52.898;6.502;2023-09-30T14:33:50;5.90;;;1.60;;
58260;SDS011;44058;52.898;6.502;2023-09-30T14:36:17;8.40;;;1.90;;
58260;SDS011;44058;52.898;6.502;2023-09-30T14:38:47;5.43;;;1.90;;
58260;SDS011;44058;52.898;6.502;2023-09-30T14:41:14;5.25;;;1.38;;
58260;SDS011;44058;52.898;6.502;2023-09-30T14:43:42;4.72;;;1.70;;
58260;SDS011;44058;52.898;6.502;2023-09-30T14:46:08;5.32;;;1.83;;
58260;SDS011;44058;52.898;6.502;2023-09-30T14:48:34;6.35;;;1.60;;
58260;SDS011;44058;52.898;6.502;2023-09-30T14:51:00;5.15;;;1.58;;
58260;SDS011;44058;52.898;6.502;2023-09-30T14:53:30;6.78;;;1.70;;
58260;SDS011;44058;52.898;6.502;2023-09-30T14:55:56;6.38;;;1.80;;
58260;SDS011;44058;52.898;6.502;2023-09-30T14:58:42;7.07;;;1.92;;
58260;SDS011;44058;52.898;6.502;2023-09-30T15:01:09;5.05;;;1.63;;
58260;SDS011;44058;52.898;6.502;2023-09-30T15:03:35;6.20;;;1.95;;
58260;SDS011;44058;52.898;6.502;2023-09-30T15:06:03;5.13;;;1.50;;
58260;SDS011;44058;52.898;6.502;2023-09-30T15:08:29;6.80;;;1.63;;
58260;SDS011;44058;52.898;6.502;2023-09-30T15:10:59;5.72;;;1.55;;